Time;durP1;ratioP1;P1;durP2;ratioP2;P2;SDS_P1;SDS_P2;PMS_P1;PMS_P2;Temp;Humidity;BMP_temperature;BMP_pressure;BME280_temperature;BME280_humidity;BME280_pressure;Samples;Min_cycle;Max_cycle;Signal;HPM_P1;HPM_P2
2022/04/19 00:01:02;;;;;;;9.85;6.32;;;;;;;3.47;82.08;101305.47;10493337;28;20981;-79
2022/04/19 00:06:03;;;;;;;10.20;6.35;;;;;;;3.41;82.83;101297.19;10484630;28;20071;-79
2022/04/19 00:11:04;;;;;;;6.77;4.67;;;;;;;3.39;83.35;101298.75;10462842;28;20032;-80
2022/04/19 00:16:08;;;;;;;9.57;6.25;;;;;;;3.31;83.18;101298.13;10481893;28;20032;-80
2022/04/19 00:21:09;;;;;;;11.10;7.22;;;;;;;3.24;84.80;101293.22;10495730;28;20070;-79
2022/04/19 00:26:09;;;;;;;10.55;6.55;;;;;;;3.18;84.96;101292.72;10473557;28;20033;-79
2022/04/19 00:31:11;;;;;;;14.05;8.32;;;;;;;3.07;85.29;101291.78;10462279;28;20036;-79
2022/04/19 00:36:13;;;;;;;15.23;9.02;;;;;;;2.99;85.65;101293.72;10481710;28;20059;-80
2022/04/19 00:41:14;;;;;;;11.10;8.13;;;;;;;2.93;85.58;101277.69;10493248;28;20021;-79
2022/04/19 00:46:15;;;;;;;13.63;9.30;;;;;;;2.84;85.69;101275.22;10465290;28;20036;-79
2022/04/19 00:51:17;;;;;;;15.48;9.65;;;;;;;2.77;85.79;101262.53;10486574;28;20115;-80
2022/04/19 00:56:17;;;;;;;16.95;10.30;;;;;;;2.85;85.63;101269.28;10439969;28;20029;-79
2022/04/19 01:01:18;;;;;;;14.05;10.57;;;;;;;2.90;85.51;101269.69;10473172;28;20120;-81
2022/04/19 01:06:19;;;;;;;10.93;8.77;;;;;;;2.91;85.42;101274.97;10440318;28;20041;-81
2022/04/19 01:16:41;;;;;;;15.70;10.10;;;;;;;2.71;86.21;101265.53;10423841;28;20396;-81
2022/04/19 01:21:45;;;;;;;14.07;9.57;;;;;;;2.69;85.95;101266.16;10423163;28;20120;-80
2022/04/19 01:26:46;;;;;;;15.05;11.88;;;;;;;2.63;85.69;101269.13;10437864;28;20056;-81
2022/04/19 01:31:46;;;;;;;14.13;11.15;;;;;;;2.62;85.66;101269.91;10412423;28;20479;-81
2022/04/19 01:36:47;;;;;;;16.38;11.82;;;;;;;2.51;86.42;101268.06;10404364;28;20123;-81
2022/04/19 01:41:48;;;;;;;17.55;11.88;;;;;;;2.39;85.66;101266.25;10418096;28;20114;-81
2022/04/19 01:46:49;;;;;;;16.58;10.80;;;;;;;2.33;86.05;101270.88;10402765;28;20389;-81
2022/04/19 01:51:50;;;;;;;16.55;13.52;;;;;;;2.33;85.86;101264.00;10447072;28;20103;-81
2022/04/19 01:56:50;;;;;;;15.90;11.63;;;;;;;2.40;86.88;101259.38;10418708;28;20091;-81
2022/04/19 02:01:51;;;;;;;17.75;11.82;;;;;;;2.51;87.53;101255.16;10401207;28;20045;-80
2022/04/19 02:06:52;;;;;;;16.38;12.75;;;;;;;2.52;87.73;101251.78;10439790;28;20033;-81
2022/04/19 02:11:52;;;;;;;16.65;12.70;;;;;;;2.50;87.99;101254.22;10440708;28;20048;-80
2022/04/19 02:17:02;;;;;;;18.35;15.27;;;;;;;2.60;88.66;101253.38;10443719;28;20143;-81
2022/04/19 02:22:06;;;;;;;19.33;12.60;;;;;;;2.63;89.05;101254.50;10448716;28;20036;-81
2022/04/19 02:27:07;;;;;;;17.85;12.07;;;;;;;2.57;88.73;101254.00;10418020;28;20033;-81
2022/04/19 02:32:11;;;;;;;14.43;11.35;;;;;;;2.47;88.65;101253.97;10415745;28;20033;-81
2022/04/19 02:37:12;;;;;;;16.45;13.27;;;;;;;2.34;88.99;101257.19;10394019;28;20032;-81
2022/04/19 02:42:12;;;;;;;17.50;12.82;;;;;;;2.32;88.99;101254.44;10411728;28;20025;-81
2022/04/19 02:47:15;;;;;;;15.93;12.50;;;;;;;2.19;87.94;101252.50;10428642;28;20072;-80
2022/04/19 02:52:17;;;;;;;19.70;13.55;;;;;;;2.17;88.64;101246.28;10446165;28;20447;-81
2022/04/19 02:57:18;;;;;;;18.48;12.82;;;;;;;2.31;88.46;101247.47;10444224;28;20176;-81
2022/04/19 03:02:19;;;;;;;16.63;12.50;;;;;;;2.20;88.62;101238.81;10397663;28;20053;-80
2022/04/19 03:07:20;;;;;;;16.80;13.05;;;;;;;2.14;88.30;101250.25;10396328;28;20072;-81
2022/04/19 03:12:20;;;;;;;19.17;14.27;;;;;;;1.97;88.65;101241.94;10443654;28;20040;-81
2022/04/19 03:17:21;;;;;;;19.30;15.23;;;;;;;1.85;89.27;101238.28;10431029;28;20075;-81
2022/04/19 03:22:21;;;;;;;16.52;13.05;;;;;;;1.78;89.12;101238.50;10422636;28;20043;-81
2022/04/19 03:27:42;;;;;;;18.13;15.18;;;;;;;1.64;88.30;101234.69;10442012;28;20098;-81
2022/04/19 03:32:43;;;;;;;20.33;16.50;;;;;;;1.67;89.29;101234.97;10441877;28;20489;-80
2022/04/19 03:37:44;;;;;;;22.33;14.73;;;;;;;1.58;88.99;101235.97;10423805;28;20033;-80
2022/04/19 03:42:44;;;;;;;26.05;18.00;;;;;;;1.50;89.24;101231.78;10392988;28;20057;-81
2022/04/19 03:47:45;;;;;;;20.27;14.82;;;;;;;1.39;89.43;101223.06;10409224;28;20116;-80
2022/04/19 03:52:45;;;;;;;19.73;14.73;;;;;;;1.32;89.32;101223.28;10424054;28;20060;-80
2022/04/19 03:57:46;;;;;;;22.75;16.90;;;;;;;1.38;89.31;101220.38;10442664;28;20453;-80
2022/04/19 04:02:47;;;;;;;24.67;16.50;;;;;;;1.44;88.76;101226.09;10422214;28;20083;-80
2022/04/19 04:07:47;;;;;;;22.25;16.67;;;;;;;1.42;88.91;101219.88;10438177;28;20499;-81
2022/04/19 04:12:48;;;;;;;23.17;16.52;;;;;;;1.45;89.91;101225.31;10418810;28;20032;-80
2022/04/19 04:17:48;;;;;;;25.50;17.20;;;;;;;1.63;89.76;101230.31;10423451;28;20124;-80
2022/04/19 04:22:49;;;;;;;17.55;14.30;;;;;;;1.62;89.68;101226.81;10439330;28;20125;-80
2022/04/19 04:27:49;;;;;;;23.33;16.55;;;;;;;1.54;89.69;101222.63;10413717;28;20155;-78
2022/04/19 04:32:50;;;;;;;24.77;18.35;;;;;;;1.40;89.55;101230.03;10420977;28;20119;-77
2022/04/19 04:37:51;;;;;;;24.02;18.08;;;;;;;1.35;89.68;101240.72;10411387;28;20131;-77
2022/04/19 04:42:51;;;;;;;23.35;17.83;;;;;;;1.35;90.56;101244.19;10419788;28;20037;-77
2022/04/19 04:53:11;;;;;;;24.02;19.35;;;;;;;1.42;90.19;101246.56;10437861;28;20025;-77
2022/04/19 04:58:12;;;;;;;26.38;17.38;;;;;;;1.52;90.71;101245.75;10422106;28;20111;-77
2022/04/19 05:03:12;;;;;;;23.13;16.67;;;;;;;1.64;89.95;101263.97;10417854;28;20564;-78
2022/04/19 05:08:14;;;;;;;21.33;18.13;;;;;;;1.83;90.31;101256.22;10441250;28;20037;-78
2022/04/19 05:13:15;;;;;;;;;;;;;;;2.07;89.86;101259.16;10406401;28;20500;-77
2022/04/19 05:18:15;;;;;;;26.70;18.05;;;;;;;2.39;90.60;101267.91;10433323;28;19916;-78
2022/04/19 05:23:16;;;;;;;26.60;19.58;;;;;;;2.72;91.03;101269.00;10434764;28;20068;-78
2022/04/19 05:28:16;;;;;;;28.30;20.40;;;;;;;3.01;90.54;101268.00;10402342;28;20119;-77
2022/04/19 05:33:17;;;;;;;26.23;16.30;;;;;;;3.27;88.96;101259.84;10418277;28;20108;-77
2022/04/19 05:38:18;;;;;;;20.80;17.65;;;;;;;3.67;88.83;101262.22;10420152;28;20516;-78
2022/04/19 05:43:18;;;;;;;22.88;16.45;;;;;;;3.99;87.26;101257.84;10416864;28;20040;-78
2022/04/19 05:48:18;;;;;;;19.50;15.68;;;;;;;4.95;86.13;101266.22;10439999;28;20033;-76
2022/04/19 05:53:19;;;;;;;18.90;14.45;;;;;;;6.50;80.04;101248.03;10447865;28;20158;-77
2022/04/19 05:58:19;;;;;;;17.98;12.07;;;;;;;7.81;70.65;101251.53;10411215;28;20154;-77
2022/04/19 06:08:39;;;;;;;16.92;10.00;;;;;;;11.63;59.17;101254.94;10438563;28;20041;-77
2022/04/19 06:13:43;;;;;;;14.30;9.90;;;;;;;14.13;50.86;101242.28;10443062;28;20500;-77
2022/04/19 06:18:44;;;;;;;18.05;11.25;;;;;;;15.53;47.69;101246.47;10421524;28;20033;-77
2022/04/19 06:23:44;;;;;;;22.98;11.10;;;;;;;15.52;44.99;101242.03;10438694;28;20040;-77
2022/04/19 06:28:45;;;;;;;17.55;10.82;;;;;;;15.68;42.88;101245.19;10420815;28;20033;-77
2022/04/19 06:33:45;;;;;;;19.10;11.98;;;;;;;17.50;39.21;101240.75;10441426;28;20115;-80
2022/04/19 06:38:46;;;;;;;16.00;10.97;;;;;;;18.54;37.06;101240.53;10429402;28;20185;-81
2022/04/19 06:43:46;;;;;;;19.10;11.90;;;;;;;18.74;36.81;101248.84;10447128;28;20141;-81
2022/04/19 06:48:47;;;;;;;17.70;10.73;;;;;;;19.22;37.83;101244.50;10445786;28;20159;-82
2022/04/19 06:53:47;;;;;;;17.43;11.50;;;;;;;19.86;34.75;101248.19;10449280;28;20428;-80
2022/04/19 06:58:49;;;;;;;12.83;11.47;;;;;;;20.00;35.06;101236.91;10435020;28;20129;-83
2022/04/19 07:03:49;;;;;;;17.15;11.80;;;;;;;20.90;30.87;101238.06;10452121;28;20132;-81
2022/04/19 07:08:50;;;;;;;14.07;10.40;;;;;;;20.92;30.34;101236.31;10440888;28;20045;-80
2022/04/19 07:13:50;;;;;;;15.03;11.23;;;;;;;20.70;32.01;101244.03;10441028;28;20065;-82
2022/04/19 07:18:52;;;;;;;15.77;11.40;;;;;;;21.23;31.56;101242.88;10423382;28;20392;-80
2022/04/19 07:29:12;;;;;;;19.17;11.13;;;;;;;20.20;33.19;101261.13;10436579;28;20021;-79
2022/04/19 07:34:13;;;;;;;18.70;14.47;;;;;;;20.95;31.30;101253.22;10439067;28;20472;-82
2022/04/19 07:39:13;;;;;;;16.47;11.37;;;;;;;20.35;32.45;101260.44;10405119;28;20515;-81
2022/04/19 07:44:15;;;;;;;17.13;11.87;;;;;;;20.87;30.50;101259.31;10440635;28;20021;-84
2022/04/19 07:49:16;;;;;;;15.55;9.65;;;;;;;21.51;29.95;101258.19;10439031;28;20036;-84
2022/04/19 07:54:16;;;;;;;19.20;11.00;;;;;;;21.21;32.67;101259.69;10439136;28;20036;-81
2022/04/19 07:59:17;;;;;;;18.00;10.27;;;;;;;22.18;28.19;101267.56;10423196;28;20488;-80
2022/04/19 08:04:17;;;;;;;14.30;9.23;;;;;;;22.51;29.16;101259.78;10430791;28;20081;-80
2022/04/19 08:09:18;;;;;;;12.60;9.53;;;;;;;22.38;28.24;101248.13;10415720;28;20142;-80
2022/04/19 08:14:19;;;;;;;14.30;8.33;;;;;;;22.32;27.73;101254.34;10419196;28;20056;-83
2022/04/19 08:19:19;;;;;;;14.37;9.27;;;;;;;23.09;26.63;101251.06;10456665;28;20437;-79
2022/04/19 08:24:20;;;;;;;15.83;9.43;;;;;;;22.12;27.21;101249.78;10434613;28;20120;-79
2022/04/19 08:29:20;;;;;;;14.30;8.10;;;;;;;22.62;26.97;101251.81;10397425;28;20102;-79
2022/04/19 08:34:21;;;;;;;10.63;8.17;;;;;;;23.25;25.22;101241.34;10413917;28;20072;-78
2022/04/19 08:39:21;;;;;;;11.83;8.40;;;;;;;23.66;25.36;101236.88;10421531;28;20119;-78
2022/04/19 08:44:22;;;;;;;10.67;7.67;;;;;;;24.25;25.13;101230.56;10435707;28;20080;-79
2022/04/19 08:49:22;;;;;;;14.63;7.30;;;;;;;23.51;26.96;101239.56;10408960;28;20147;-78
2022/04/19 08:59:42;;;;;;;10.88;8.00;;;;;;;24.56;26.09;101231.31;10439298;28;20025;-77
2022/04/19 09:04:42;;;;;;;13.87;10.20;;;;;;;24.58;24.43;101226.84;10434383;28;20116;-79
2022/04/19 09:09:44;;;;;;;11.97;9.20;;;;;;;23.62;24.92;101232.44;10405008;28;20043;-77
2022/04/19 09:14:58;;;;;;;12.30;8.27;;;;;;;24.73;25.08;101230.38;10420408;28;20044;-77
2022/04/19 09:20:18;;;;;;;11.85;8.13;;;;;;;26.34;23.63;101226.31;10453136;28;20388;-77
2022/04/19 09:25:25;;;;;;;12.85;8.35;;;;;;;25.82;22.61;101222.44;10395286;28;20397;-77
2022/04/19 09:30:28;;;;;;;15.57;9.65;;;;;;;25.97;23.67;101225.84;10363464;28;20113;-77
2022/04/19 09:35:59;;;;;;;13.30;9.52;;;;;;;26.48;22.34;101222.56;10432333;28;20040;-78
2022/04/19 09:40:59;;;;;;;12.95;8.60;;;;;;;26.74;22.22;101210.59;10397847;28;20132;-78
2022/04/19 09:46:03;;;;;;;13.27;8.03;;;;;;;26.65;21.35;101207.13;10378373;28;20133;-78
2022/04/19 09:51:04;;;;;;;9.90;6.40;;;;;;;25.27;21.75;101203.25;10394903;28;20109;-78
2022/04/19 09:56:11;;;;;;;11.38;7.00;;;;;;;25.10;22.43;101208.72;10432062;28;20033;-79
2022/04/19 10:11:52;;;;;;;9.25;6.38;;;;;;;26.50;22.38;101185.88;10461649;28;20504;-77
2022/04/19 10:16:52;;;;;;;10.90;5.83;;;;;;;26.23;21.49;101188.00;10493886;28;20064;-76
2022/04/19 10:21:53;;;;;;;11.00;6.07;;;;;;;25.51;21.51;101182.53;10480618;28;20056;-79
2022/04/19 10:26:54;;;;;;;6.93;4.50;;;;;;;26.01;22.73;101182.88;10472768;28;20549;-78
2022/04/19 10:31:58;;;;;;;10.00;6.23;;;;;;;26.24;20.92;101179.06;10483176;28;20036;-76
2022/04/19 10:37:26;;;;;;;11.10;5.78;;;;;;;25.79;21.74;101179.56;10455966;28;20076;-76
2022/04/19 10:42:34;;;;;;;8.27;5.55;;;;;;;25.12;22.63;101177.47;10461484;28;20087;-76
2022/04/19 10:47:35;;;;;;;12.35;6.30;;;;;;;24.81;22.94;101182.16;10499658;28;20020;-76
2022/04/19 10:52:45;;;;;;;8.30;6.00;;;;;;;25.11;22.90;101166.78;10475886;28;20095;-76
2022/04/19 11:03:09;;;;;;;8.40;5.57;;;;;;;25.55;22.61;101161.94;10462712;28;20045;-77
2022/04/19 11:08:30;;;;;;;8.15;5.75;;;;;;;25.69;23.76;101170.72;10458488;28;20043;-76
2022/04/19 11:13:32;;;;;;;10.45;6.00;;;;;;;26.87;22.47;101155.84;10450245;28;20496;-76
2022/04/19 11:18:33;;;;;;;11.43;6.18;;;;;;;26.19;22.24;101154.09;10445114;28;20037;-75
2022/04/19 11:23:50;;;;;;;6.60;4.70;;;;;;;26.72;22.10;101156.03;10436282;28;20071;-76
2022/04/19 11:29:09;;;;;;;12.23;6.43;;;;;;;26.00;23.65;101151.59;10420213;28;20373;-76
2022/04/19 11:34:13;;;;;;;9.10;5.68;;;;;;;24.96;22.28;101144.59;10424597;28;20044;-79
2022/04/19 11:46:43;;;;;;;7.10;4.80;;;;;;;23.64;24.26;101146.94;10420512;28;20094;-77
2022/04/19 11:50:01;;;;;;;10.57;5.43;;;;;;;23.27;25.27;101140.78;10413768;28;20092;-77
2022/04/19 11:55:03;;;;;;;15.05;4.90;;;;;;;23.99;24.70;101140.63;10432349;28;20056;-76
2022/04/19 12:00:05;;;;;;;8.98;4.05;;;;;;;25.63;25.02;101150.25;10417842;28;20033;-78
2022/04/19 12:05:06;;;;;;;13.30;5.65;;;;;;;26.55;22.22;101129.47;10452292;28;20477;-83
2022/04/19 12:10:07;;;;;;;8.98;5.68;;;;;;;26.22;24.22;101127.22;10412926;28;20508;-79
2022/04/19 12:15:08;;;;;;;7.33;4.10;;;;;;;26.11;23.67;101122.00;10421460;28;20071;-79
2022/04/19 12:20:09;;;;;;;8.17;5.67;;;;;;;25.09;23.24;101123.94;10401170;28;20036;-79
2022/04/19 12:25:11;;;;;;;7.32;4.60;;;;;;;26.01;22.55;101121.22;10396619;28;20045;-79
2022/04/19 12:30:12;;;;;;;10.02;6.55;;;;;;;26.46;23.08;101111.69;10421758;28;20038;-78
2022/04/19 12:35:18;;;;;;;8.40;4.55;;;;;;;26.26;23.35;101109.31;10394504;28;20030;-78
2022/04/19 12:40:26;;;;;;;7.28;4.03;;;;;;;26.35;22.64;101112.72;10396015;28;20044;-79
2022/04/19 12:45:30;;;;;;;7.68;4.25;;;;;;;25.95;22.63;101115.91;10400544;28;20469;-79
2022/04/19 12:50:31;;;;;;;7.00;4.43;;;;;;;25.65;22.18;101107.34;10400839;28;20542;-80
2022/04/19 12:55:32;;;;;;;8.27;4.73;;;;;;;25.15;23.49;101109.63;10377398;28;20022;-80
2022/04/19 13:00:38;;;;;;;8.43;4.73;;;;;;;25.43;21.71;101112.03;10413635;28;20144;-80
2022/04/19 13:16:22;;;;;;;12.83;6.43;;;;;;;25.32;22.59;101086.25;10482254;28;20037;-79
2022/04/19 13:21:24;;;;;;;7.55;5.22;;;;;;;24.74;22.81;101077.84;10491565;28;20025;-80
2022/04/19 13:26:25;;;;;;;8.57;6.15;;;;;;;25.02;23.47;101082.94;10485422;28;20494;-78
2022/04/19 13:31:25;;;;;;;10.37;5.63;;;;;;;24.94;23.32;101076.78;10473278;28;20085;-80
2022/04/19 13:36:26;;;;;;;7.73;4.50;;;;;;;25.31;23.32;101080.88;10453825;28;20036;-79
2022/04/19 13:41:27;;;;;;;6.93;4.37;;;;;;;25.54;23.43;101071.75;10487481;28;20048;-80
2022/04/19 13:46:27;;;;;;;8.00;4.30;;;;;;;25.22;22.22;101071.16;10491692;28;20060;-83
2022/04/19 13:51:27;;;;;;;8.63;5.07;;;;;;;25.33;21.63;101061.22;10440030;28;20067;-79
2022/04/19 13:56:29;;;;;;;8.00;6.00;;;;;;;25.92;21.51;101070.38;10493869;28;20117;-79
2022/04/19 14:01:31;;;;;;;14.10;5.85;;;;;;;25.11;24.90;101075.75;10466615;28;20028;-78
2022/04/19 14:06:38;;;;;;;10.80;5.75;;;;;;;25.12;25.48;101065.00;10476890;28;20510;-80
2022/04/19 14:11:39;;;;;;;8.15;4.95;;;;;;;24.32;24.75;101067.38;10458594;28;20044;-80
2022/04/19 14:16:39;;;;;;;8.50;4.57;;;;;;;24.53;24.77;101067.25;10500737;28;20510;-81
2022/04/19 14:21:40;;;;;;;8.83;4.20;;;;;;;24.38;22.74;101063.78;10479389;28;20522;-80
2022/04/19 14:26:40;;;;;;;10.17;5.53;;;;;;;24.21;23.32;101053.19;10491481;28;20115;-81
2022/04/19 14:37:00;;;;;;;6.82;4.03;;;;;;;23.80;23.29;101052.50;10494493;28;20044;-80
2022/04/19 14:42:03;;;;;;;9.30;5.40;;;;;;;23.83;24.85;101049.81;10487041;28;20063;-78
2022/04/19 14:47:04;;;;;;;10.02;5.32;;;;;;;23.78;23.77;101042.69;10488604;28;20111;-80
2022/04/19 14:52:14;;;;;;;6.87;4.63;;;;;;;23.14;25.69;101045.53;10481516;28;20028;-81
2022/04/19 14:57:15;;;;;;;9.02;5.13;;;;;;;22.73;27.12;101042.00;10490715;28;20033;-80
2022/04/19 15:02:16;;;;;;;9.73;5.20;;;;;;;22.54;27.86;101049.13;10496437;28;20048;-80
2022/04/19 15:07:18;;;;;;;6.20;3.80;;;;;;;21.73;28.19;101048.88;10438235;28;20033;-79
2022/04/19 15:12:21;;;;;;;7.50;4.50;;;;;;;;;;10405775;28;20041;-80
2022/04/19 15:17:22;;;;;;;8.77;5.32;;;;;;;21.47;27.11;101036.28;10447675;28;20047;-80
2022/04/19 15:22:22;;;;;;;7.20;5.13;;;;;;;21.24;30.37;101046.78;10439195;28;20400;-84
2022/04/19 15:27:23;;;;;;;7.85;5.32;;;;;;;21.03;28.65;101036.91;10432358;28;20064;-79
2022/04/19 15:32:24;;;;;;;11.73;5.05;;;;;;;20.95;29.38;101042.16;10409087;28;20076;-80
2022/04/19 15:37:27;;;;;;;9.70;4.70;;;;;;;19.86;32.44;101029.53;10426050;28;20025;-82
2022/04/19 15:42:28;;;;;;;6.80;4.32;;;;;;;18.83;34.64;101030.75;10398972;28;20026;-80
2022/04/19 15:47:29;;;;;;;8.13;4.68;;;;;;;18.52;36.90;101029.31;10404885;28;20465;-80
2022/04/19 15:52:29;;;;;;;7.00;4.40;;;;;;;18.24;36.61;101042.06;10455607;28;20045;-80
2022/04/19 15:57:30;;;;;;;9.32;3.90;;;;;;;17.88;36.49;101042.22;10431416;28;20079;-79
2022/04/19 16:02:30;;;;;;;8.63;4.63;;;;;;;17.57;35.78;101054.81;10448965;28;20048;-79
2022/04/19 16:07:31;;;;;;;9.35;4.28;;;;;;;17.54;36.72;101052.09;10401664;28;20051;-79
2022/04/19 16:12:31;;;;;;;7.43;4.90;;;;;;;17.48;37.68;101051.09;10420764;28;20112;-77
2022/04/19 16:28:10;;;;;;;8.88;4.80;;;;;;;17.08;39.64;101051.97;10416752;28;20036;-79
2022/04/19 16:33:10;;;;;;;7.25;3.90;;;;;;;16.94;38.72;101056.88;10430731;28;20112;-79
2022/04/19 16:38:11;;;;;;;7.47;4.63;;;;;;;16.68;39.29;101057.09;10431050;28;20610;-79
2022/04/19 16:43:14;;;;;;;7.00;4.00;;;;;;;16.52;40.00;101058.47;10412413;28;20033;-79
2022/04/19 16:48:15;;;;;;;6.63;4.40;;;;;;;16.52;40.04;101055.84;10443972;28;20391;-78
2022/04/19 16:53:16;;;;;;;6.97;5.03;;;;;;;16.43;40.47;101061.75;10434611;28;20064;-77
2022/04/19 16:58:16;;;;;;;9.68;4.65;;;;;;;16.32;41.12;101057.06;10412332;28;20495;-79
2022/04/19 17:08:36;;;;;;;6.60;4.15;;;;;;;15.91;41.98;101057.66;10417541;28;20037;-79
2022/04/19 17:13:36;;;;;;;6.53;3.63;;;;;;;15.76;39.72;101071.28;10433300;28;20056;-79
2022/04/19 17:18:37;;;;;;;6.45;3.70;;;;;;;15.61;41.49;101067.34;10451254;28;20514;-78
2022/04/19 17:23:37;;;;;;;6.13;3.63;;;;;;;15.48;39.73;101070.47;10447234;28;20064;-78
2022/04/19 17:28:38;;;;;;;4.88;3.40;;;;;;;15.35;41.84;101078.00;10413054;28;20537;-77
2022/04/19 17:33:38;;;;;;;6.25;3.40;;;;;;;15.08;42.85;101085.88;10453077;28;20436;-77
2022/04/19 17:38:40;;;;;;;5.03;2.85;;;;;;;14.87;43.37;101081.69;10417599;28;20040;-77
2022/04/19 17:43:41;;;;;;;10.23;3.92;;;;;;;14.73;41.23;101090.88;10451643;28;20535;-77
2022/04/19 17:48:41;;;;;;;3.63;1.58;;;;;;;14.58;39.38;101089.47;10424850;28;20056;-78
2022/04/19 17:59:01;;;;;;;4.28;1.65;;;;;;;14.08;40.93;101105.25;10427993;28;20040;-77
2022/04/19 18:04:02;;;;;;;5.50;1.70;;;;;;;13.73;41.67;101103.06;10419607;28;20046;-77
2022/04/19 18:09:03;;;;;;;5.30;1.90;;;;;;;13.57;40.28;101113.84;10435506;28;20068;-77
2022/04/19 18:14:04;;;;;;;2.37;1.40;;;;;;;13.32;42.08;101112.81;10422481;28;20029;-77
2022/04/19 18:19:05;;;;;;;6.72;1.67;;;;;;;12.97;43.78;101117.53;10439486;28;20067;-77
2022/04/19 18:29:24;;;;;;;4.72;1.30;;;;;;;12.29;46.56;101136.53;10444363;28;20062;-77
2022/04/19 18:34:25;;;;;;;3.67;2.00;;;;;;;11.98;45.54;101141.22;10458032;28;20511;-77
2022/04/19 18:39:25;;;;;;;4.20;2.45;;;;;;;11.95;45.40;101154.19;10424953;28;20060;-77
2022/04/19 18:44:26;;;;;;;3.83;2.10;;;;;;;11.70;46.10;101160.91;10441229;28;20032;-76
2022/04/19 18:49:26;;;;;;;6.82;2.78;;;;;;;11.67;44.84;101168.63;10427186;28;20062;-79
2022/04/19 18:54:27;;;;;;;5.25;2.10;;;;;;;11.56;45.71;101175.06;10417825;28;20072;-78
2022/04/19 18:59:28;;;;;;;3.75;2.10;;;;;;;11.38;46.31;101188.19;10432670;28;20029;-80
2022/04/19 19:04:28;;;;;;;5.00;2.63;;;;;;;11.26;46.37;101198.94;10439689;28;20170;-77
2022/04/19 19:09:29;;;;;;;5.40;2.45;;;;;;;11.09;46.94;101196.38;10440031;28;20037;-77
2022/04/19 19:14:29;;;;;;;4.45;2.15;;;;;;;10.83;47.73;101205.50;10439912;28;20170;-77
2022/04/19 19:19:30;;;;;;;5.68;2.58;;;;;;;10.61;47.66;101212.25;10457312;28;20123;-77
2022/04/19 19:24:30;;;;;;;5.07;2.47;;;;;;;10.62;48.94;101211.44;10439206;28;20057;-77
2022/04/19 19:29:31;;;;;;;5.68;3.00;;;;;;;10.50;48.27;101219.50;10422863;28;20064;-77
2022/04/19 19:34:32;;;;;;;6.07;3.47;;;;;;;10.53;48.71;101224.91;10455295;28;20056;-77
2022/04/19 19:39:33;;;;;;;12.27;3.03;;;;;;;10.38;49.58;101235.44;10421385;28;20404;-77
2022/04/19 19:44:33;;;;;;;5.15;2.70;;;;;;;10.29;50.27;101241.03;10456137;28;20076;-77
2022/04/19 19:49:34;;;;;;;4.13;2.60;;;;;;;10.06;51.68;101241.50;10455312;28;20052;-76
2022/04/19 19:54:35;;;;;;;7.03;3.35;;;;;;;9.89;51.93;101257.13;10457782;28;20068;-77
2022/04/19 19:59:35;;;;;;;3.63;2.50;;;;;;;9.74;52.48;101259.78;10456393;28;20134;-76
2022/04/19 20:04:36;;;;;;;5.10;2.83;;;;;;;9.49;53.29;101271.44;10437717;28;20059;-77
2022/04/19 20:09:36;;;;;;;6.88;3.90;;;;;;;9.37;52.41;101273.31;10437637;28;20045;-77
2022/04/19 20:14:37;;;;;;;11.23;3.83;;;;;;;9.40;52.63;101284.84;10431854;28;20437;-76
2022/04/19 20:19:38;;;;;;;6.05;3.78;;;;;;;9.42;52.80;101289.25;10436944;28;20051;-76
2022/04/19 20:24:39;;;;;;;5.50;3.57;;;;;;;9.18;54.64;101295.75;10454994;28;20536;-76
2022/04/19 20:29:39;;;;;;;4.38;2.83;;;;;;;8.97;54.94;101295.31;10455946;28;20057;-76
2022/04/19 20:34:40;;;;;;;9.10;5.03;;;;;;;8.73;55.92;101300.84;10454961;28;20114;-76
2022/04/19 20:39:40;;;;;;;10.75;3.70;;;;;;;8.83;55.21;101297.09;10454435;28;20052;-75
2022/04/19 20:44:41;;;;;;;8.40;2.85;;;;;;;8.68;56.74;101301.38;10456502;28;20124;-76
2022/04/19 20:55:01;;;;;;;4.72;3.28;;;;;;;8.52;55.97;101314.34;10453957;28;20029;-76
2022/04/19 21:00:02;;;;;;;7.20;4.37;;;;;;;8.29;57.36;101322.38;10436418;28;20029;-75
2022/04/19 21:05:05;;;;;;;6.13;3.85;;;;;;;7.98;58.57;101321.31;10454281;28;20045;-75
2022/04/19 21:10:10;;;;;;;6.45;3.28;;;;;;;8.04;56.99;101320.78;10436169;28;20051;-76
2022/04/19 21:15:12;;;;;;;8.70;3.38;;;;;;;7.90;59.50;101331.22;10454031;28;20039;-76
2022/04/19 21:20:16;;;;;;;7.10;3.63;;;;;;;7.76;60.86;101326.78;10453239;28;20599;-76
2022/04/19 21:25:18;;;;;;;5.28;3.25;;;;;;;7.61;60.98;101331.91;10436897;28;20367;-76
2022/04/19 21:30:18;;;;;;;12.20;3.22;;;;;;;7.49;60.72;101329.34;10452377;28;20032;-76
2022/04/19 21:35:20;;;;;;;4.32;2.55;;;;;;;7.44;60.23;101330.75;10452911;28;20091;-76
2022/04/19 21:40:21;;;;;;;7.53;3.05;;;;;;;7.31;61.34;101335.13;10434863;28;20037;-76
2022/04/19 21:45:21;;;;;;;5.15;3.13;;;;;;;7.19;62.49;101331.69;10418942;28;20057;-76
2022/04/19 21:50:22;;;;;;;4.88;3.28;;;;;;;7.15;63.03;101337.47;10434975;28;20112;-75
2022/04/19 21:55:22;;;;;;;6.35;3.38;;;;;;;7.01;63.52;101340.03;10435342;28;20035;-75
2022/04/19 22:00:46;;;;;;;4.90;2.92;;;;;;;6.87;64.00;101341.66;10451447;28;20111;-75
2022/04/19 22:05:47;;;;;;;6.05;4.35;;;;;;;6.81;64.68;101337.72;10452225;28;20497;-75
2022/04/19 22:10:47;;;;;;;7.57;4.05;;;;;;;6.77;63.97;101339.22;10434373;28;20068;-76
2022/04/19 22:15:48;;;;;;;5.40;2.75;;;;;;;6.67;65.68;101337.66;10452892;28;20035;-75
2022/04/19 22:20:48;;;;;;;7.03;3.22;;;;;;;6.45;65.67;101336.13;10434317;28;20061;-75
2022/04/19 22:25:49;;;;;;;8.75;4.32;;;;;;;6.34;67.00;101339.63;10451246;28;20098;-75
2022/04/19 22:30:49;;;;;;;8.57;3.50;;;;;;;6.23;67.52;101328.47;10418939;28;20389;-75
2022/04/19 22:35:50;;;;;;;5.18;3.30;;;;;;;6.18;67.70;101340.25;10459959;28;20072;-75
2022/04/19 22:40:50;;;;;;;5.85;3.80;;;;;;;6.08;69.16;101337.75;10458941;28;20116;-76
2022/04/19 22:45:51;;;;;;;6.65;3.83;;;;;;;6.22;66.95;101336.16;10424435;28;20049;-75
2022/04/19 22:50:51;;;;;;;7.18;4.35;;;;;;;6.42;64.80;101333.28;10442109;28;20145;-76
2022/04/19 22:55:52;;;;;;;6.63;2.97;;;;;;;6.66;65.11;101337.56;10441646;28;20464;-75
2022/04/19 23:00:52;;;;;;;5.40;2.78;;;;;;;6.52;64.58;101341.75;10440301;28;20071;-75
2022/04/19 23:05:53;;;;;;;6.50;3.70;;;;;;;6.58;63.39;101342.19;10485950;28;20488;-75
2022/04/19 23:10:53;;;;;;;9.00;3.78;;;;;;;6.67;63.70;101339.38;10499525;28;20041;-75
2022/04/19 23:15:54;;;;;;;8.57;3.78;;;;;;;6.61;63.10;101337.22;10499293;28;20387;-75
2022/04/19 23:20:54;;;;;;;7.50;3.97;;;;;;;6.46;63.78;101337.03;10481180;28;20060;-76
2022/04/19 23:31:15;;;;;;;5.95;3.30;;;;;;;6.32;63.71;101328.22;10498330;28;20032;-76
2022/04/19 23:36:15;;;;;;;10.82;4.57;;;;;;;6.12;64.49;101335.47;10480642;28;20068;-76
2022/04/19 23:41:16;;;;;;;6.43;3.80;;;;;;;6.22;63.68;101331.88;10498480;28;20063;-76
2022/04/19 23:46:16;;;;;;;10.68;3.72;;;;;;;6.13;64.18;101337.28;10498961;28;20119;-75
2022/04/19 23:51:17;;;;;;;7.43;3.78;;;;;;;6.14;63.52;101322.63;10498447;28;20060;-75
2022/04/19 23:56:17;;;;;;;6.80;4.70;;;;;;;6.19;63.40;101330.72;10497768;28;20072;-76
